Main page
METAR-TAF:

METAR-TAF

Airports :

José Martí International Airport

Havana, Cuba

latitude: 22-59N, longitude: 082-24W, elevation: 59 m

Current weather observation

The report was made 52 minutes ago, at 23:55 UTC
Wind 10 kt from the North
Temperature 20°C
Humidity 68%
Pressure 1020 hPa
Visibility: 9000 m
Broken clouds at a height of 3000 ft

METAR: MUHA 152355Z 01010KT 9000 BKN030 20/14 Q1020

Time: 19:47 (00:47 UTC)

Forecast

The report was made 1 hour and 47 minutes ago, at 23:00 UTC
Forecast valid from 16 at 00 UTC to 16 at 24 UTC
Wind 5 kt from the North
Visibility: 9000 m
Scattered clouds at a height of 2500 ft
Becoming
from 16 at 13 UTC to 16 at 15 UTC
Wind 10 kt from the North/Northeast

TAF: MUHA 152300Z 1600/1624 01005KT 9000 SCT025 BECMG 1613/1615 02010KT

Weather observations and forecasts of more than 4000 airports (METAR and TAF reports).

The available stations are represented by yellow and red dots on the map.

Hover mouse over dot to see the name of the station.

Then click to see weather observations and forecasts.

To change the map : click on the green buttons with a black cross to zoom in, on the green button with a dash to zoom out, or on the green arrows for adjacent maps.


METAR-TAF: